Stone Cabin, Nevada Weather observations

Data are for observation ending at time listed.
 Day   Time    Ave.   Ave.  Ave.  Vector   Max.   Stn.    Total    Solar   Ave.  
  of    of     Air    Rel.  Wind   Wind    Wind   Baro.  Precip.   Rad.    Soil  
Year   Day     Temp.  Hum.  Speed  Dir.    Gust   Pres.                    Temp. 
2015   (PST)    F      %     mph   deg.    mph     mb.     in.     W/m2     F   
------------------------------------------------------------------------------
 148    4:00  99999.0   99999  99999.0   99999    99999.0    99999    99999.00   99999    99999.0
 148    5:00  99999.0   99999  99999.0   99999    99999.0    99999    99999.00   99999    99999.0
 148    6:00  99999.0   99999  99999.0   99999    99999.0    99999    99999.00   99999    99999.0
 148    7:00  99999.0   99999  99999.0   99999    99999.0    99999    99999.00   99999    99999.0
 148    8:00  99999.0   99999  99999.0   99999    99999.0    99999    99999.00   99999    99999.0
 148    9:00  99999.0   99999  99999.0   99999    99999.0    99999    99999.00   99999    99999.0
 148   10:00  99999.0   99999  99999.0   99999    99999.0    99999    99999.00   99999    99999.0
 148   11:00  99999.0   99999  99999.0   99999    99999.0    99999    99999.00   99999    99999.0
 148   12:00  99999.0   99999  99999.0   99999    99999.0    99999    99999.00   99999    99999.0
 148   13:00  99999.0   99999  99999.0   99999    99999.0    99999    99999.00   99999    99999.0
 148   14:00  99999.0   99999  99999.0   99999    99999.0    99999    99999.00   99999    99999.0
 148   15:00   78.2    15    6.6   263     15.3    819     0.00     846    66.7
 148   16:00   78.5    14    5.6   232     13.8    817     0.00     569    66.7
 148   17:00   77.0    15    4.4   263     13.2    812     0.00     284    66.0
 148   18:00   76.2    16    6.1   274     14.3    812     0.00     170    65.1
 148   19:00   73.1    13    6.7   288     14.9    812     0.00      44    64.2
 148   20:00   65.0    17    2.4   275      5.8    813     0.00       2    63.0
 148   21:00   58.5    26    0.5     3      3.7    814     0.00       0    61.5
 148   22:00   61.6    32    1.6    17      5.5    814     0.00       0    60.2
 148   23:00   59.0    39    0.5    20      3.3    815     0.00       0    59.4
 149    0:00   58.2    42    0.6    14      4.2    816     0.00       0    58.8
 149    1:00   57.4    43    0.4     3      3.0    813     0.00       0    58.3
 149    2:00   55.7    46    0.4   278      2.6    816     0.00       0    57.8
 149    3:00   51.2    54    1.1   200      4.2    818     0.00       0    57.2

Return to Stone Cabin, Nevada graphs page.


Western Regional Climate Center,wrcc@dri.edu